Time;durP1;ratioP1;P1;durP2;ratioP2;P2;SDS_P1;SDS_P2;PMS_P1;PMS_P2;Temp;Humidity;BMP_temperature;BMP_pressure;BME280_temperature;BME280_humidity;BME280_pressure;Samples;Min_cycle;Max_cycle;Signal;HPM_P1;HPM_P2
2022/05/15 00:02:29;;;;;;;9.63;4.78;;;18.20;96.50;;;;;;5027018;28;20075;-82
2022/05/15 00:04:55;;;;;;;8.50;4.22;;;15.40;96.00;;;;;;5032593;28;20052;-81
2022/05/15 00:07:24;;;;;;;7.88;4.50;;;15.40;96.20;;;;;;5023573;28;20034;-84
2022/05/15 00:09:50;;;;;;;6.70;4.80;;;;;;;;;;5014878;28;20036;-83
2022/05/15 00:12:16;;;;;;;9.73;4.90;;;15.30;96.10;;;;;;5039477;28;20087;-82
2022/05/15 00:14:43;;;;;;;6.47;4.40;;;16.10;96.80;;;;;;5038469;28;20029;-82
2022/05/15 00:17:12;;;;;;;8.10;4.55;;;15.30;96.70;;;;;;5036988;28;20033;-85
2022/05/15 00:19:37;;;;;;;7.55;4.18;;;16.10;97.30;;;;;;5032853;28;20043;-84
2022/05/15 00:22:03;;;;;;;9.82;5.45;;;17.60;97.70;;;;;;5034358;28;20167;-81
2022/05/15 00:24:29;;;;;;;6.45;4.78;;;15.20;97.10;;;;;;5036287;28;20022;-83
2022/05/15 00:26:56;;;;;;;8.15;4.25;;;15.10;97.20;;;;;;5020607;28;20026;-82
2022/05/15 00:29:22;;;;;;;10.50;5.28;;;15.10;97.40;;;;;;5017793;28;20079;-83
2022/05/15 00:31:47;;;;;;;6.57;4.28;;;15.10;97.50;;;;;;5011080;28;20034;-84
2022/05/15 00:34:14;;;;;;;7.32;4.57;;;;;;;;;;5021491;28;20036;-83
2022/05/15 00:36:39;;;;;;;10.13;5.18;;;15.00;97.40;;;;;;5035948;28;20403;-81
2022/05/15 00:39:06;;;;;;;9.18;5.07;;;15.70;98.20;;;;;;5019399;28;20058;-83
2022/05/15 00:41:34;;;;;;;9.05;4.90;;;15.00;97.60;;;;;;5041871;28;20029;-83
2022/05/15 00:44:00;;;;;;;7.75;4.50;;;15.20;97.90;;;;;;5038206;28;20403;-83
2022/05/15 00:46:31;;;;;;;7.38;4.63;;;15.00;97.90;;;;;;5035811;28;20061;-83
2022/05/15 00:49:01;;;;;;;9.55;4.28;;;15.00;98.10;;;;;;5039897;28;20103;-85
2022/05/15 00:52:02;;;;;;;7.90;4.35;;;15.00;98.20;;;;;;5037127;28;20086;-81
2022/05/15 00:54:49;;;;;;;6.88;4.00;;;14.90;98.20;;;;;;4970895;28;20099;-83
2022/05/15 00:57:21;;;;;;;8.35;4.88;;;15.80;98.60;;;;;;5022196;28;20026;-82
2022/05/15 01:00:11;;;;;;;8.45;4.45;;;14.90;98.50;;;;;;5017738;28;20026;-83
2022/05/15 01:02:43;;;;;;;6.63;4.57;;;14.90;98.60;;;;;;5018017;28;20030;-85
2022/05/15 01:05:15;;;;;;;9.82;4.88;;;14.90;98.60;;;;;;5041056;28;20437;-83
2022/05/15 01:07:40;;;;;;;10.98;5.70;;;14.90;98.60;;;;;;5019910;28;20103;-82
2022/05/15 01:10:07;;;;;;;8.63;5.10;;;16.80;99.20;;;;;;5042170;28;20037;-83
2022/05/15 01:12:35;;;;;;;6.75;5.03;;;14.90;98.90;;;;;;5038118;28;20030;-83
2022/05/15 01:15:01;;;;;;;8.70;4.60;;;14.90;98.90;;;;;;5020936;28;20049;-84
2022/05/15 01:17:27;;;;;;;8.80;5.07;;;;;;;;;;5036058;28;20045;-81
2022/05/15 01:20:07;;;;;;;8.02;4.05;;;14.90;98.80;;;;;;5040461;28;20037;-80
2022/05/15 01:22:33;;;;;;;9.40;4.55;;;14.90;99.00;;;;;;5020291;28;20036;-78
2022/05/15 01:24:58;;;;;;;6.53;4.65;;;14.90;99.00;;;;;;5033234;28;20038;-82
2022/05/15 01:27:24;;;;;;;7.05;4.82;;;15.00;99.00;;;;;;5024614;28;20049;-84
2022/05/15 01:29:50;;;;;;;8.15;4.40;;;15.50;99.20;;;;;;5022225;28;20030;-81
2022/05/15 01:32:17;;;;;;;5.30;3.95;;;15.60;99.20;;;;;;5018103;28;20026;-85
2022/05/15 01:34:43;;;;;;;7.82;4.47;;;15.20;99.20;;;;;;5037877;28;20026;-79
2022/05/15 01:37:09;;;;;;;8.05;4.35;;;15.60;99.30;;;;;;5017356;28;20101;-83
2022/05/15 01:39:35;;;;;;;8.13;3.92;;;15.90;99.50;;;;;;5037946;28;20527;-82
2022/05/15 01:42:02;;;;;;;7.03;4.03;;;14.90;99.10;;;;;;5039065;28;20017;-84
2022/05/15 01:44:28;;;;;;;9.10;4.25;;;14.80;99.10;;;;;;5044084;28;20033;-82
2022/05/15 01:46:53;;;;;;;7.90;3.72;;;14.80;99.00;;;;;;5038627;28;20028;-82
2022/05/15 01:49:19;;;;;;;7.70;4.25;;;14.70;98.90;;;;;;5019834;28;20030;-81
2022/05/15 01:51:45;;;;;;;7.70;4.00;;;14.80;98.90;;;;;;5018325;28;20060;-81
2022/05/15 01:54:12;;;;;;;5.90;3.50;;;15.40;98.90;;;;;;5038624;28;20040;-81
2022/05/15 01:56:40;;;;;;;6.97;3.90;;;14.70;98.90;;;;;;5020830;28;20061;-82
2022/05/15 01:59:07;;;;;;;5.75;4.10;;;16.20;99.20;;;;;;5037424;28;20447;-82
2022/05/15 02:01:33;;;;;;;8.88;4.70;;;;;;;;;;5035773;28;20029;-83
2022/05/15 02:03:59;;;;;;;7.88;5.00;;;;;;;;;;5033626;28;20029;-81
2022/05/15 02:06:25;;;;;;;10.27;5.30;;;;;;;;;;5017785;28;20022;-84
2022/05/15 02:08:51;;;;;;;7.82;4.63;;;;;;;;;;5020658;28;20036;-81
2022/05/15 02:11:17;;;;;;;7.65;5.20;;;14.60;99.90;;;;;;5037140;28;20045;-81
2022/05/15 02:13:42;;;;;;;10.32;5.20;;;14.50;99.90;;;;;;5017133;28;20487;-84
2022/05/15 02:16:08;;;;;;;8.18;5.68;;;14.50;99.90;;;;;;5018239;28;20026;-83
2022/05/15 02:18:34;;;;;;;9.38;5.40;;;16.20;99.90;;;;;;5016278;28;20028;-83
2022/05/15 02:20:59;;;;;;;9.40;4.95;;;14.40;99.90;;;;;;5038313;28;20099;-82
2022/05/15 02:23:26;;;;;;;12.15;7.63;;;17.20;99.90;;;;;;5018552;28;20399;-81
2022/05/15 02:25:52;;;;;;;7.50;4.22;;;16.20;99.90;;;;;;5033443;28;20061;-86
2022/05/15 02:28:18;;;;;;;6.85;3.83;;;14.60;99.90;;;;;;5001333;28;20029;-81
2022/05/15 02:30:44;;;;;;;5.57;3.90;;;15.10;99.90;;;;;;5036473;28;20026;-79
2022/05/15 02:33:09;;;;;;;7.63;3.58;;;14.30;99.90;;;;;;5034265;28;20510;-81
2022/05/15 02:35:35;;;;;;;5.85;3.25;;;14.30;99.90;;;;;;5012784;28;20092;-78
2022/05/15 02:38:00;;;;;;;15.77;4.55;;;14.20;99.90;;;;;;5017392;28;20064;-78
2022/05/15 02:40:26;;;;;;;9.05;3.65;;;14.30;99.90;;;;;;5001105;28;20029;-80
2022/05/15 02:42:55;;;;;;;8.95;4.05;;;14.40;99.90;;;;;;5016581;28;20059;-80
2022/05/15 02:45:21;;;;;;;5.05;3.33;;;14.30;99.80;;;;;;5026203;28;20026;-80
2022/05/15 02:47:47;;;;;;;7.30;3.35;;;14.40;99.60;;;;;;5034178;28;20018;-78
2022/05/15 02:52:57;;;;;;;7.80;3.10;;;14.90;99.40;;;;;;5027192;28;20527;-80
2022/05/15 02:55:25;;;;;;;4.95;3.10;;;14.30;99.10;;;;;;5019768;28;21359;-80
2022/05/15 02:57:51;;;;;;;7.30;3.60;;;14.30;98.90;;;;;;5004175;28;20044;-79
2022/05/15 03:00:18;;;;;;;7.95;3.97;;;14.30;98.80;;;;;;5046635;28;20097;-85
2022/05/15 03:02:44;;;;;;;7.38;3.97;;;14.30;99.00;;;;;;5021048;28;20022;-80
2022/05/15 03:05:12;;;;;;;9.75;4.10;;;14.30;99.20;;;;;;5029935;28;20137;-81
2022/05/15 03:07:38;;;;;;;7.65;4.63;;;14.30;99.20;;;;;;5032329;28;20042;-79
2022/05/15 03:10:05;;;;;;;9.23;4.18;;;14.20;99.50;;;;;;5018955;28;20033;-79
2022/05/15 03:12:31;;;;;;;6.75;4.03;;;14.20;99.80;;;;;;5018020;28;20037;-80
2022/05/15 03:14:56;;;;;;;9.00;3.70;;;14.20;99.70;;;;;;5019157;28;20049;-79
2022/05/15 03:17:22;;;;;;;5.88;3.25;;;14.10;99.50;;;;;;5018323;28;20038;-79
2022/05/15 03:19:48;;;;;;;6.45;4.00;;;14.00;99.00;;;;;;5018112;28;20022;-81
2022/05/15 03:22:13;;;;;;;6.57;3.85;;;13.90;99.50;;;;;;5018060;28;20765;-80
2022/05/15 03:24:39;;;;;;;6.20;3.75;;;14.10;99.70;;;;;;5034495;28;20041;-80
2022/05/15 03:27:05;;;;;;;6.72;4.07;;;14.00;99.70;;;;;;5033900;28;20033;-78
2022/05/15 03:29:31;;;;;;;7.03;4.25;;;14.00;99.90;;;;;;5015955;28;20454;-81
2022/05/15 03:31:57;;;;;;;6.38;3.83;;;14.70;99.90;;;;;;5018167;28;20024;-82
2022/05/15 03:34:23;;;;;;;7.78;3.65;;;14.00;99.90;;;;;;5015578;28;20080;-82
2022/05/15 03:36:53;;;;;;;6.78;3.85;;;14.00;99.90;;;;;;5016222;28;20034;-80
2022/05/15 03:39:21;;;;;;;9.50;4.32;;;14.00;99.40;;;;;;4999974;28;20048;-79
2022/05/15 03:41:50;;;;;;;7.22;2.90;;;14.60;99.80;;;;;;5017552;28;20030;-83
2022/05/15 03:44:16;;;;;;;8.80;3.90;;;14.60;98.60;;;;;;5018041;28;20495;-80
2022/05/15 03:46:43;;;;;;;5.97;3.22;;;14.10;97.80;;;;;;5033658;28;20052;-79
2022/05/15 03:49:11;;;;;;;5.68;2.70;;;14.20;98.20;;;;;;5014996;28;20036;-81
2022/05/15 03:51:37;;;;;;;4.10;2.60;;;15.60;98.30;;;;;;5016706;28;20030;-80
2022/05/15 03:54:03;;;;;;;7.05;2.22;;;14.20;97.10;;;;;;5034199;28;20029;-82
2022/05/15 03:59:13;;;;;;;6.57;2.53;;;14.30;95.60;;;;;;5033882;28;20100;-80
2022/05/15 04:01:38;;;;;;;5.85;2.83;;;14.30;95.40;;;;;;5032058;28;20065;-80
2022/05/15 04:04:05;;;;;;;6.28;3.17;;;14.30;95.60;;;;;;5013792;28;20025;-81
2022/05/15 04:06:31;;;;;;;5.53;2.35;;;14.30;95.60;;;;;;5015070;28;20056;-81
2022/05/15 04:08:57;;;;;;;6.10;2.50;;;14.40;95.40;;;;;;5016581;28;20464;-78
2022/05/15 04:11:22;;;;;;;7.07;2.80;;;14.40;95.50;;;;;;5015700;28;20088;-79
2022/05/15 04:13:48;;;;;;;4.13;2.38;;;14.40;95.50;;;;;;5031979;28;20061;-77
2022/05/15 04:16:14;;;;;;;4.85;2.35;;;14.40;95.30;;;;;;5028633;28;20040;-80
2022/05/15 04:18:41;;;;;;;3.95;2.38;;;14.50;95.10;;;;;;5033799;28;20085;-83
2022/05/15 04:21:07;;;;;;;6.25;2.30;;;;;;;;;;5017421;28;20128;-80
2022/05/15 04:23:33;;;;;;;6.15;2.47;;;14.50;94.70;;;;;;5031610;28;20026;-82
2022/05/15 04:25:59;;;;;;;5.90;2.75;;;14.50;95.00;;;;;;5019252;28;20025;-78
2022/05/15 04:28:24;;;;;;;5.47;2.75;;;14.60;94.90;;;;;;5016635;28;20402;-78
2022/05/15 04:30:50;;;;;;;7.45;3.15;;;14.60;94.80;;;;;;5013248;28;20030;-82
2022/05/15 04:33:16;;;;;;;9.32;3.72;;;14.70;94.40;;;;;;5017722;28;20563;-77
2022/05/15 04:35:41;;;;;;;7.20;2.58;;;14.70;94.30;;;;;;5016278;28;20029;-81
2022/05/15 04:38:08;;;;;;;6.63;2.50;;;15.20;94.50;;;;;;5031854;28;20029;-80
2022/05/15 04:40:34;;;;;;;7.15;2.55;;;15.70;94.60;;;;;;5031422;28;20025;-82
2022/05/15 04:43:00;;;;;;;5.45;2.45;;;14.80;94.40;;;;;;5022361;28;20048;-80
2022/05/15 04:45:25;;;;;;;7.82;2.80;;;14.80;94.30;;;;;;5018182;28;20026;-83
2022/05/15 04:47:51;;;;;;;4.85;2.47;;;14.90;94.30;;;;;;5038089;28;20034;-78
2022/05/15 04:50:18;;;;;;;5.57;2.35;;;14.90;94.20;;;;;;5032671;28;20483;-82
2022/05/15 04:52:44;;;;;;;7.28;2.50;;;14.90;93.90;;;;;;5034063;28;20036;-82
2022/05/15 04:55:11;;;;;;;3.45;2.00;;;14.90;94.00;;;;;;5016382;28;20030;-81
2022/05/15 04:57:37;;;;;;;3.20;2.15;;;15.80;93.90;;;;;;5018424;28;20474;-82
2022/05/15 05:00:07;;;;;;;6.30;2.72;;;16.30;93.90;;;;;;5037678;28;20060;-88
2022/05/15 05:02:32;;;;;;;6.65;2.45;;;15.20;93.60;;;;;;5019627;28;20018;-84
2022/05/15 05:04:59;;;;;;;6.43;2.90;;;15.20;93.50;;;;;;5018778;28;20021;-82
2022/05/15 05:07:27;;;;;;;3.97;2.20;;;15.20;93.40;;;;;;5033288;28;20033;-82
2022/05/15 05:09:53;;;;;;;8.77;2.58;;;15.40;93.40;;;;;;5033283;28;20032;-84
2022/05/15 05:12:18;;;;;;;5.65;2.55;;;15.30;93.30;;;;;;5020368;28;20029;-82
2022/05/15 05:14:44;;;;;;;5.30;2.42;;;15.40;93.20;;;;;;5019617;28;20483;-83
2022/05/15 05:17:10;;;;;;;7.55;2.22;;;15.50;93.10;;;;;;5038733;28;20025;-82
2022/05/15 05:19:35;;;;;;;5.70;2.20;;;15.60;92.90;;;;;;5015635;28;20044;-81
2022/05/15 05:22:02;;;;;;;5.65;2.13;;;;;;;;;;5014295;28;20033;-81
2022/05/15 05:24:27;;;;;;;6.47;2.55;;;16.70;91.50;;;;;;5017040;28;20052;-80
2022/05/15 05:26:53;;;;;;;5.97;2.10;;;17.80;89.60;;;;;;5043331;28;20045;-83
2022/05/15 05:29:19;;;;;;;5.85;2.25;;;18.90;85.70;;;;;;5054049;28;20026;-86
2022/05/15 05:31:44;;;;;;;5.10;1.92;;;19.50;82.90;;;;;;5054507;28;20029;-85
2022/05/15 05:34:10;;;;;;;3.92;2.15;;;20.30;81.30;;;;;;5051141;28;20097;-82
2022/05/15 05:36:36;;;;;;;5.75;2.40;;;20.60;79.00;;;;;;5035961;28;20411;-80
2022/05/15 05:39:01;;;;;;;6.32;2.78;;;20.70;78.10;;;;;;5030805;28;20076;-78
2022/05/15 05:41:27;;;;;;;6.13;2.50;;;20.80;77.60;;;;;;5019763;28;20527;-83
2022/05/15 05:43:53;;;;;;;5.82;2.00;;;20.70;76.00;;;;;;5020434;28;20106;-83
2022/05/15 05:46:18;;;;;;;7.43;2.10;;;20.30;75.80;;;;;;5016911;28;20047;-79
2022/05/15 05:48:45;;;;;;;5.30;2.13;;;20.80;76.50;;;;;;5010956;28;20026;-82
2022/05/15 05:51:13;;;;;;;5.93;2.00;;;20.90;76.60;;;;;;5034196;28;20095;-82
2022/05/15 05:53:39;;;;;;;7.15;2.20;;;20.70;76.60;;;;;;5032417;28;20165;-81
2022/05/15 05:56:04;;;;;;;6.40;2.22;;;20.30;77.30;;;;;;5031249;28;20034;-83
2022/05/15 05:58:31;;;;;;;5.45;2.40;;;20.40;77.30;;;;;;5010580;28;20029;-82
2022/05/15 06:00:56;;;;;;;7.85;2.30;;;20.40;76.80;;;;;;5022864;28;20487;-81
2022/05/15 06:06:06;;;;;;;6.95;2.40;;;20.10;78.00;;;;;;5034548;28;20109;-84
2022/05/15 06:08:32;;;;;;;4.95;2.17;;;19.90;78.10;;;;;;5014805;28;20025;-81
2022/05/15 06:10:58;;;;;;;5.30;2.28;;;19.80;78.50;;;;;;5016502;28;20029;-83
2022/05/15 06:13:25;;;;;;;6.00;2.47;;;19.60;79.20;;;;;;5009692;28;20033;-81
2022/05/15 06:15:51;;;;;;;4.35;2.40;;;19.40;80.20;;;;;;5005632;28;20030;-83
2022/05/15 06:18:18;;;;;;;5.15;2.15;;;19.80;81.30;;;;;;5005081;28;20037;-82
2022/05/15 06:20:43;;;;;;;5.15;2.30;;;19.20;81.00;;;;;;5023756;28;20025;-83
2022/05/15 06:23:12;;;;;;;3.70;2.28;;;19.30;81.00;;;;;;5010644;28;20060;-82
2022/05/15 06:25:38;;;;;;;3.95;2.30;;;19.00;81.20;;;;;;5023943;28;20021;-83
2022/05/15 06:28:04;;;;;;;6.95;2.25;;;19.00;81.60;;;;;;5031571;28;20380;-81
2022/05/15 06:30:30;;;;;;;7.25;2.40;;;18.80;82.50;;;;;;5016259;28;20499;-80
2022/05/15 06:32:56;;;;;;;6.35;2.50;;;18.80;82.30;;;;;;5032968;28;20040;-82
2022/05/15 06:35:22;;;;;;;7.55;2.63;;;18.90;83.20;;;;;;5038636;28;20144;-80
2022/05/15 06:37:47;;;;;;;4.38;2.13;;;21.40;83.80;;;;;;5023844;28;20029;-81
2022/05/15 06:40:14;;;;;;;5.53;2.03;;;18.90;81.40;;;;;;5018135;28;20399;-81
2022/05/15 06:42:40;;;;;;;7.13;2.42;;;18.70;82.00;;;;;;5038630;28;20033;-82
2022/05/15 06:45:07;;;;;;;5.75;2.20;;;20.20;83.50;;;;;;5041040;28;20547;-82
2022/05/15 06:47:33;;;;;;;5.55;2.05;;;18.70;82.80;;;;;;5020719;28;20108;-79
2022/05/15 06:50:00;;;;;;;4.80;2.17;;;19.80;83.90;;;;;;5019789;28;20056;-80
2022/05/15 06:52:26;;;;;;;5.45;2.20;;;18.80;83.30;;;;;;5017496;28;20071;-85
2022/05/15 06:54:52;;;;;;;4.47;2.22;;;18.90;83.20;;;;;;5021935;28;20033;-79
2022/05/15 06:57:31;;;;;;;5.93;2.10;;;19.00;82.70;;;;;;5032562;28;20415;-83
2022/05/15 06:59:58;;;;;;;5.00;2.65;;;19.10;82.70;;;;;;5034210;28;20060;-83
2022/05/15 07:02:25;;;;;;;7.35;2.42;;;19.20;82.20;;;;;;5038583;28;20483;-81
2022/05/15 07:04:52;;;;;;;7.90;2.20;;;19.30;82.80;;;;;;5038772;28;20032;-81
2022/05/15 07:07:18;;;;;;;6.00;2.63;;;20.60;83.40;;;;;;5024386;28;20037;-83
2022/05/15 07:09:44;;;;;;;4.13;2.00;;;;;;;;;;5033642;28;20041;-82
2022/05/15 07:12:09;;;;;;;6.07;2.53;;;19.50;82.00;;;;;;5020707;28;20049;-79
2022/05/15 07:14:35;;;;;;;5.55;2.50;;;19.60;82.10;;;;;;5035372;28;20113;-82
2022/05/15 07:17:02;;;;;;;6.80;2.30;;;19.70;82.10;;;;;;5033567;28;20057;-81
2022/05/15 07:19:27;;;;;;;5.28;2.20;;;19.70;81.50;;;;;;5017744;28;20022;-86
2022/05/15 07:21:53;;;;;;;5.63;2.35;;;19.80;82.00;;;;;;5015302;28;20082;-86
2022/05/15 07:24:20;;;;;;;6.85;2.42;;;19.70;82.80;;;;;;5017171;28;20036;-84
2022/05/15 07:26:46;;;;;;;4.97;1.92;;;;;;;;;;5031265;28;22356;-87
2022/05/15 07:29:13;;;;;;;4.53;2.13;;;19.70;82.00;;;;;;5029363;28;20049;-87
2022/05/15 07:31:39;;;;;;;5.82;2.40;;;19.80;82.10;;;;;;5024768;28;20029;-85
2022/05/15 07:34:05;;;;;;;4.47;2.10;;;19.80;82.50;;;;;;5013749;28;20034;-87
2022/05/15 07:36:30;;;;;;;9.35;2.63;;;20.00;81.50;;;;;;5030716;28;20063;-85
2022/05/15 07:38:56;;;;;;;7.32;2.38;;;;;;;;;;5018797;28;20116;-87
2022/05/15 07:41:22;;;;;;;3.95;1.95;;;20.10;81.60;;;;;;5037543;28;20071;-84
2022/05/15 07:43:48;;;;;;;5.55;2.00;;;20.20;82.00;;;;;;5017305;28;20026;-87
2022/05/15 07:46:14;;;;;;;5.75;2.58;;;;;;;;;;5019085;28;20028;-85
2022/05/15 07:48:39;;;;;;;5.30;2.20;;;20.50;79.80;;;;;;5036123;28;20030;-85
2022/05/15 07:51:05;;;;;;;6.00;2.00;;;20.70;79.40;;;;;;5031388;28;20395;-86
2022/05/15 07:53:31;;;;;;;3.50;1.83;;;;;;;;;;5033350;28;20036;-85
2022/05/15 07:55:59;;;;;;;4.45;1.95;;;20.80;78.90;;;;;;5041680;28;20116;-87
2022/05/15 07:58:25;;;;;;;5.03;2.25;;;;;;;;;;5017999;28;20395;-88
2022/05/15 08:00:53;;;;;;;5.25;1.90;;;20.90;78.30;;;;;;5037174;28;20025;-87
2022/05/15 08:03:20;;;;;;;6.60;2.15;;;21.60;78.80;;;;;;5030319;28;20063;-87
2022/05/15 08:08:30;;;;;;;4.55;1.95;;;21.30;78.30;;;;;;5033985;28;20080;-88
2022/05/15 08:10:56;;;;;;;3.00;1.90;;;21.40;78.00;;;;;;5017966;28;20021;-86
2022/05/15 08:13:25;;;;;;;4.93;1.90;;;21.50;77.80;;;;;;5020906;28;20104;-88
2022/05/15 08:15:51;;;;;;;3.65;1.83;;;21.60;77.10;;;;;;5029773;28;20874;-86
2022/05/15 08:23:57;;;;;;;6.28;2.17;;;21.90;75.20;;;;;;5032675;28;20031;-85
2022/05/15 08:26:23;;;;;;;5.85;1.90;;;22.00;75.10;;;;;;5016943;28;20112;-86
2022/05/15 08:28:49;;;;;;;6.10;2.40;;;22.00;75.70;;;;;;5019550;28;20017;-87
2022/05/15 08:31:17;;;;;;;4.65;1.75;;;21.80;75.70;;;;;;5037026;28;20021;-87
2022/05/15 08:33:43;;;;;;;4.53;1.70;;;21.80;75.90;;;;;;5016843;28;20047;-87
2022/05/15 08:36:10;;;;;;;5.15;2.10;;;;;;;;;;5018435;28;20290;-87
2022/05/15 08:38:37;;;;;;;3.75;1.80;;;22.10;74.50;;;;;;5019257;28;20029;-88
2022/05/15 08:41:24;;;;;;;5.53;1.98;;;22.30;73.90;;;;;;5034300;28;20352;-86
2022/05/15 08:44:08;;;;;;;4.40;1.90;;;22.30;74.30;;;;;;5019518;28;20121;-86
2022/05/15 08:46:40;;;;;;;2.95;1.83;;;22.60;73.80;;;;;;5014831;28;20289;-86
2022/05/15 08:49:11;;;;;;;5.75;1.80;;;22.80;73.40;;;;;;5017419;28;20029;-87
2022/05/15 08:51:42;;;;;;;9.35;2.35;;;23.00;72.90;;;;;;5030475;28;20029;-85
2022/05/15 08:54:10;;;;;;;4.30;1.67;;;23.00;73.10;;;;;;5020805;28;20047;-85
2022/05/15 08:56:43;;;;;;;3.83;1.83;;;23.00;72.50;;;;;;5035267;28;20036;-83
2022/05/15 08:59:19;;;;;;;3.95;1.95;;;23.10;71.80;;;;;;5030296;28;20025;-84
2022/05/15 09:01:45;;;;;;;6.15;1.98;;;23.40;71.90;;;;;;5035947;28;20018;-86
2022/05/15 09:04:14;;;;;;;6.50;2.20;;;23.40;72.00;;;;;;5031430;28;20042;-87
2022/05/15 09:06:50;;;;;;;5.65;1.85;;;23.30;71.60;;;;;;5038206;28;20048;-83
2022/05/15 09:09:46;;;;;;;4.95;2.15;;;23.30;72.00;;;;;;5054955;28;20030;-84
2022/05/15 09:12:16;;;;;;;5.38;2.05;;;23.50;72.80;;;;;;5033851;28;20018;-84
2022/05/15 09:15:01;;;;;;;3.70;2.10;;;23.60;71.80;;;;;;5034372;28;20052;-85
2022/05/15 09:17:52;;;;;;;5.28;1.90;;;23.80;71.50;;;;;;5032128;28;20119;-84
2022/05/15 09:20:24;;;;;;;4.45;1.90;;;24.10;71.30;;;;;;5029642;28;20037;-85
2022/05/15 09:23:18;;;;;;;4.32;1.90;;;26.10;72.50;;;;;;5035117;28;20034;-86
2022/05/15 09:25:57;;;;;;;2.38;1.60;;;24.20;71.30;;;;;;5035001;28;20039;-82
2022/05/15 09:28:26;;;;;;;4.57;2.10;;;24.40;70.90;;;;;;5033150;28;20399;-86
2022/05/15 09:30:55;;;;;;;3.47;1.60;;;24.50;70.00;;;;;;5034086;28;20275;-85
2022/05/15 09:33:29;;;;;;;6.65;2.35;;;24.50;69.30;;;;;;5018539;28;20037;-85
2022/05/15 09:36:26;;;;;;;3.60;1.63;;;24.50;69.40;;;;;;5026247;28;20025;-84
2022/05/15 09:39:19;;;;;;;3.33;1.80;;;24.60;69.20;;;;;;5018983;28;20064;-86
2022/05/15 09:57:28;;;;;;;4.45;1.83;;;25.30;67.20;;;;;;5037287;28;20049;-83
2022/05/15 10:00:00;;;;;;;4.85;1.40;;;25.50;65.40;;;;;;5037045;28;20030;-84
2022/05/15 10:02:47;;;;;;;5.38;1.30;;;25.50;65.20;;;;;;5022404;28;20661;-82
2022/05/15 10:05:26;;;;;;;4.43;1.73;;;25.60;65.80;;;;;;5038818;28;20021;-84
2022/05/15 10:08:03;;;;;;;2.87;1.30;;;25.70;65.10;;;;;;5038939;28;20025;-84
2022/05/15 10:10:53;;;;;;;5.78;2.22;;;25.80;63.40;;;;;;5041049;28;20287;-83
2022/05/15 10:13:25;;;;;;;4.72;1.40;;;25.60;62.90;;;;;;5025343;28;20034;-83
2022/05/15 10:15:52;;;;;;;3.67;1.48;;;25.60;62.60;;;;;;5024752;28;20025;-83
2022/05/15 10:18:25;;;;;;;6.28;1.50;;;25.70;62.80;;;;;;5042712;28;20026;-84
2022/05/15 10:20:53;;;;;;;6.13;1.50;;;25.70;62.20;;;;;;5044215;28;20029;-83
2022/05/15 10:23:19;;;;;;;3.70;1.23;;;;;;;;;;5022757;28;20013;-84
2022/05/15 10:25:57;;;;;;;7.72;1.90;;;;;;;;;;5018564;28;20030;-84
2022/05/15 10:28:37;;;;;;;2.85;1.17;;;26.10;61.30;;;;;;5040350;28;20041;-84
2022/05/15 10:31:15;;;;;;;;;;;26.10;61.60;;;;;;5041479;28;20104;-82
2022/05/15 10:33:46;;;;;;;4.85;1.75;;;26.40;60.00;;;;;;5037566;28;20381;-83
2022/05/15 10:36:29;;;;;;;5.28;2.05;;;26.40;60.40;;;;;;5025292;28;20030;-82
2022/05/15 10:39:06;;;;;;;5.90;2.08;;;;;;;;;;5036034;28;20045;-82
2022/05/15 10:41:48;;;;;;;3.88;1.77;;;26.50;59.20;;;;;;5054599;28;20109;-82
2022/05/15 10:44:14;;;;;;;3.53;1.70;;;;;;;;;;5037209;28;20509;-83
2022/05/15 10:46:57;;;;;;;6.13;1.98;;;26.50;58.90;;;;;;5041145;28;20061;-83
2022/05/15 10:49:57;;;;;;;3.33;1.60;;;26.60;59.20;;;;;;5040720;28;20057;-83
2022/05/15 10:52:32;;;;;;;3.25;1.50;;;27.70;59.50;;;;;;5026205;28;20041;-82
2022/05/15 10:58:50;;;;;;;5.80;1.42;;;26.50;58.80;;;;;;5039993;28;20043;-82
2022/05/15 11:01:32;;;;;;;5.10;1.60;;;26.60;59.20;;;;;;5029871;28;20038;-82
2022/05/15 11:04:15;;;;;;;6.10;1.80;;;26.60;59.00;;;;;;5042183;28;20021;-82
2022/05/15 11:07:21;;;;;;;3.17;1.70;;;26.70;58.60;;;;;;5038677;28;20017;-82
2022/05/15 11:09:58;;;;;;;5.28;1.73;;;27.00;58.50;;;;;;5019159;28;20038;-82
2022/05/15 11:12:58;;;;;;;4.68;1.80;;;26.70;58.00;;;;;;5045257;28;20009;-82
2022/05/15 11:15:51;;;;;;;5.15;1.40;;;26.70;58.60;;;;;;5060632;22;20104;-85
2022/05/15 11:19:05;;;;;;;3.88;1.90;;;27.00;59.10;;;;;;5056506;28;20037;-87
2022/05/15 11:21:50;;;;;;;4.07;1.63;;;27.00;58.40;;;;;;5030143;28;20060;-84
2022/05/15 11:24:57;;;;;;;5.65;2.53;;;27.30;57.10;;;;;;5006334;28;20018;-87
2022/05/15 11:27:26;;;;;;;7.07;1.90;;;27.40;57.50;;;;;;5035910;28;20033;-86
2022/05/15 11:29:57;;;;;;;5.63;2.13;;;27.40;57.90;;;;;;5025139;28;20278;-85
2022/05/15 11:32:51;;;;;;;5.43;1.90;;;27.60;57.40;;;;;;5029003;28;20029;-86
2022/05/15 11:35:17;;;;;;;4.57;2.10;;;27.60;57.30;;;;;;5022624;28;20055;-85
2022/05/15 11:37:45;;;;;;;4.15;1.80;;;27.60;56.90;;;;;;5007429;28;20025;-87
2022/05/15 11:40:28;;;;;;;3.67;1.70;;;27.40;57.20;;;;;;5005040;28;20088;-85
2022/05/15 11:42:54;;;;;;;4.88;1.38;;;27.30;57.60;;;;;;5023500;28;20029;-86
2022/05/15 11:45:48;;;;;;;3.03;1.50;;;27.50;57.10;;;;;;5008136;28;20017;-87
2022/05/15 11:48:27;;;;;;;3.33;1.50;;;27.80;57.30;;;;;;5016285;28;20022;-86
2022/05/15 11:51:02;;;;;;;4.95;1.80;;;27.50;57.10;;;;;;5002428;28;20040;-86
2022/05/15 11:53:50;;;;;;;4.53;1.88;;;27.70;57.00;;;;;;5002787;28;20029;-88
2022/05/15 11:56:40;;;;;;;7.47;2.95;;;27.90;56.20;;;;;;5007528;28;20026;-86
2022/05/15 11:59:15;;;;;;;4.68;2.00;;;27.90;56.70;;;;;;4996209;28;20038;-83
2022/05/15 12:01:50;;;;;;;6.60;2.55;;;27.90;56.60;;;;;;5023466;28;20030;-85
2022/05/15 12:04:26;;;;;;;5.13;2.10;;;28.00;56.60;;;;;;5007741;28;20029;-85
2022/05/15 12:06:57;;;;;;;5.70;2.42;;;28.10;56.30;;;;;;5009250;28;20026;-86
2022/05/15 12:09:29;;;;;;;5.43;1.70;;;28.10;56.30;;;;;;5025794;28;20076;-86
2022/05/15 12:11:57;;;;;;;3.08;1.40;;;28.00;55.90;;;;;;5012965;28;20022;-84
2022/05/15 12:14:25;;;;;;;4.70;1.85;;;28.10;55.40;;;;;;5015462;28;20037;-87
2022/05/15 12:16:51;;;;;;;3.90;1.80;;;28.10;55.40;;;;;;5026930;28;20025;-85
2022/05/15 12:19:26;;;;;;;4.65;1.80;;;28.10;55.50;;;;;;5008541;28;20081;-86
2022/05/15 12:21:55;;;;;;;3.53;1.70;;;28.10;55.80;;;;;;5000167;28;20098;-87
2022/05/15 12:24:29;;;;;;;5.07;1.60;;;28.20;56.00;;;;;;5030655;28;20748;-89
2022/05/15 12:26:55;;;;;;;2.67;1.48;;;;;;;;;;5020541;28;20033;-89
2022/05/15 12:29:36;;;;;;;4.13;1.33;;;28.20;54.90;;;;;;5041373;28;20017;-88
2022/05/15 12:32:08;;;;;;;3.40;1.90;;;28.10;55.70;;;;;;5031042;28;20010;-88
2022/05/15 12:34:42;;;;;;;4.38;1.80;;;28.00;56.10;;;;;;5016290;28;20044;-88
2022/05/15 12:37:17;;;;;;;3.67;1.58;;;28.20;56.10;;;;;;5035079;28;20034;-88
2022/05/15 12:39:47;;;;;;;6.28;1.90;;;28.30;55.30;;;;;;5001787;28;20033;-89
2022/05/15 12:42:21;;;;;;;3.83;1.35;;;28.50;56.00;;;;;;5035235;28;20038;-89
2022/05/15 12:45:00;;;;;;;4.47;1.60;;;28.30;56.00;;;;;;5018415;28;20122;-87
2022/05/15 12:47:27;;;;;;;4.90;1.60;;;28.50;56.30;;;;;;5030390;28;20037;-87
2022/05/15 12:49:59;;;;;;;7.40;1.88;;;28.80;56.20;;;;;;5011388;28;20868;-88
2022/05/15 12:52:28;;;;;;;4.00;1.60;;;28.80;55.50;;;;;;5011864;28;20097;-86
2022/05/15 12:54:59;;;;;;;5.00;1.70;;;28.60;54.90;;;;;;5011128;28;20053;-87
2022/05/15 12:57:25;;;;;;;5.78;1.90;;;;;;;;;;5022865;28;20128;-88
2022/05/15 12:59:53;;;;;;;4.85;1.98;;;;;;;;;;5024631;28;20049;-86
2022/05/15 13:02:27;;;;;;;4.15;1.90;;;28.70;55.40;;;;;;5029801;28;20030;-86
2022/05/15 13:04:55;;;;;;;4.47;1.73;;;28.60;54.90;;;;;;5010233;28;20041;-89
2022/05/15 13:07:26;;;;;;;4.50;1.95;;;28.50;55.30;;;;;;5026957;28;20066;-86
2022/05/15 13:10:02;;;;;;;3.45;1.60;;;28.50;55.50;;;;;;4999422;28;20018;-88
2022/05/15 13:12:29;;;;;;;3.90;1.80;;;28.50;55.30;;;;;;5028113;28;20037;-86
2022/05/15 13:14:57;;;;;;;4.43;2.17;;;28.50;55.70;;;;;;5018225;28;20033;-86
2022/05/15 13:17:36;;;;;;;4.70;1.63;;;28.60;55.40;;;;;;5018239;28;20033;-85
2022/05/15 13:20:15;;;;;;;4.60;1.90;;;28.60;55.80;;;;;;5001103;28;20357;-86
2022/05/15 13:22:42;;;;;;;11.65;1.88;;;28.70;55.90;;;;;;4997660;28;20113;-85
2022/05/15 13:25:18;;;;;;;6.15;2.03;;;28.60;55.70;;;;;;5005591;28;20622;-83
2022/05/15 13:27:46;;;;;;;3.15;1.77;;;28.70;55.50;;;;;;4998331;28;20022;-88
2022/05/15 13:30:21;;;;;;;2.83;1.65;;;28.60;55.60;;;;;;5013035;28;20033;-86
2022/05/15 13:32:50;;;;;;;4.05;1.67;;;28.70;56.00;;;;;;5001019;28;20103;-85
2022/05/15 13:35:17;;;;;;;2.95;1.73;;;28.80;55.60;;;;;;5016275;28;20510;-86
2022/05/15 13:37:48;;;;;;;4.90;1.73;;;28.90;55.20;;;;;;4998871;28;20030;-85
2022/05/15 13:43:28;;;;;;;4.50;1.83;;;28.60;54.90;;;;;;5024588;28;20033;-85
2022/05/15 13:46:19;;;;;;;4.00;1.70;;;28.50;55.30;;;;;;5003064;28;20369;-85
2022/05/15 13:48:54;;;;;;;4.45;1.88;;;28.70;55.10;;;;;;5020125;28;20018;-87
2022/05/15 13:51:32;;;;;;;4.00;2.20;;;31.00;56.90;;;;;;5006090;28;20032;-88